Time;durP1;ratioP1;P1;durP2;ratioP2;P2;SDS_P1;SDS_P2;PMS_P1;PMS_P2;Temp;Humidity;BMP_temperature;BMP_pressure;BME280_temperature;BME280_humidity;BME280_pressure;Samples;Min_cycle;Max_cycle;Signal;HPM_P1;HPM_P2
2022/04/30 00:02:18;;;;;;;;;;;;;;;23.99;63.14;97488.97;591478;240;66449;-71
2022/04/30 00:04:47;;;;;;;;;;;;;;;23.98;62.87;97492.75;591486;240;63074;-72
2022/04/30 00:07:16;;;;;;;;;;;;;;;23.99;63.52;97494.34;591514;240;66469;-71
2022/04/30 00:09:44;;;;;;;;;;;;;;;23.98;62.98;97489.23;591478;240;68226;-71
2022/04/30 00:12:12;;;;;;;;;;;;;;;23.97;63.68;97491.13;591516;240;65353;-71
2022/04/30 00:14:40;;;;;;;;;;;;;;;23.97;62.97;97488.44;591491;240;68115;-71
2022/04/30 00:17:08;;;;;;;;;;;;;;;23.97;63.31;97495.70;591514;240;66320;-71
2022/04/30 00:19:35;;;;;;;;;;;;;;;23.98;63.32;97489.23;591522;240;65016;-71
2022/04/30 00:22:03;;;;;;;;;;;;;;;23.97;62.80;97484.96;591463;240;68739;-71
2022/04/30 00:24:31;;;;;;;;;;;;;;;23.96;63.00;97481.48;591484;240;66253;-71
2022/04/30 00:27:01;;;;;;;;;;;;;;;23.96;63.54;97486.84;591498;240;62833;-71
2022/04/30 00:29:29;;;;;;;;;;;;;;;23.95;63.16;97479.86;591448;240;65771;-71
2022/04/30 00:31:57;;;;;;;;;;;;;;;23.95;63.39;97479.86;591536;240;66258;-71
2022/04/30 00:34:25;;;;;;;;;;;;;;;23.93;63.49;97472.10;591471;240;63145;-72
2022/04/30 00:36:52;;;;;;;;;;;;;;;23.93;63.96;97471.30;591459;240;66525;-71
2022/04/30 00:39:20;;;;;;;;;;;;;;;23.93;63.63;97473.98;591472;240;66451;-71
2022/04/30 00:41:48;;;;;;;;;;;;;;;23.93;63.68;97474.78;591486;240;63107;-71
2022/04/30 00:44:19;;;;;;;;;;;;;;;23.93;63.30;97473.98;591470;240;69297;-71
2022/04/30 00:46:47;;;;;;;;;;;;;;;23.93;63.67;97471.30;591530;240;68558;-68
2022/04/30 00:49:15;;;;;;;;;;;;;;;23.92;62.90;97472.37;591440;240;65410;-69
2022/04/30 00:51:43;;;;;;;;;;;;;;;23.92;63.17;97467.00;591471;240;66602;-69
2022/04/30 00:54:12;;;;;;;;;;;;;;;23.91;63.80;97465.41;591428;240;68558;-68
2022/04/30 00:56:43;;;;;;;;;;;;;;;23.91;63.59;97463.52;591471;240;63040;-69
2022/04/30 00:59:10;;;;;;;;;;;;;;;23.91;63.36;97462.72;591506;240;68721;-68
2022/04/30 01:01:38;;;;;;;;;;;;;;;23.91;63.07;97463.52;591425;240;68427;-69
2022/04/30 01:04:18;;;;;;;;;;;;;;;23.91;62.96;97460.83;591534;240;46372;-69
2022/04/30 01:06:50;;;;;;;;;;;;;;;23.91;62.33;97463.52;591462;240;69588;-69
2022/04/30 01:09:28;;;;;;;;;;;;;;;23.91;62.67;97465.41;591424;240;66836;-69
2022/04/30 01:11:59;;;;;;;;;;;;;;;23.90;62.55;97471.86;591464;240;65520;-68
2022/04/30 01:14:31;;;;;;;;;;;;;;;23.90;62.49;97477.23;591507;240;68656;-69
2022/04/30 01:16:57;;;;;;;;;;;;;;;;;;591469;240;66453;-69
2022/04/30 01:19:27;;;;;;;;;;;;;;;23.88;63.16;97461.39;591517;240;63050;-71
2022/04/30 01:21:55;;;;;;;;;;;;;;;23.90;62.66;97461.13;591467;240;68572;-71
2022/04/30 01:24:24;;;;;;;;;;;;;;;23.88;62.35;97468.65;591464;240;68485;-71
2022/04/30 01:26:53;;;;;;;;;;;;;;;23.88;62.74;97465.97;591538;240;63062;-71
2022/04/30 01:29:21;;;;;;;;;;;;;;;23.89;62.43;97467.56;591495;240;68229;-71
2022/04/30 01:37:23;;;;;;;;;;;;;;;23.87;62.64;97461.66;591498;240;66521;-69
2022/04/30 01:39:53;;;;;;;;;;;;;;;23.87;62.51;97469.71;591491;240;68373;-69
2022/04/30 01:42:20;;;;;;;;;;;;;;;23.87;63.23;97459.80;591533;240;64071;-69
2022/04/30 01:44:48;;;;;;;;;;;;;;;23.86;62.53;97462.75;591471;240;68339;-69
2022/04/30 01:47:16;;;;;;;;;;;;;;;23.85;62.85;97459.27;591488;240;68374;-69
2022/04/30 01:49:44;;;;;;;;;;;;;;;23.86;62.21;97457.38;591434;240;63949;-69
2022/04/30 01:52:16;;;;;;;;;;;;;;;23.85;62.59;97450.42;591504;240;68555;-69
2022/04/30 01:54:44;;;;;;;;;;;;;;;23.84;62.27;97452.28;591510;240;68333;-69
2022/04/30 01:57:13;;;;;;;;;;;;;;;23.84;62.35;97454.97;591474;240;65422;-69
2022/04/30 01:59:41;;;;;;;;;;;;;;;23.85;62.43;97453.11;591466;240;66191;-71
2022/04/30 02:02:12;;;;;;;;;;;;;;;23.84;62.42;97448.80;591461;240;68335;-72
2022/04/30 02:04:38;;;;;;;;;;;;;;;23.84;62.87;97454.17;591510;237;65220;-71
2022/04/30 02:07:06;;;;;;;;;;;;;;;23.83;62.28;97457.94;591474;240;68567;-71
2022/04/30 02:09:34;;;;;;;;;;;;;;;23.83;62.47;97452.58;591521;240;66187;-71
2022/04/30 02:12:01;;;;;;;;;;;;;;;23.82;62.50;97451.78;591462;240;63059;-71
2022/04/30 02:14:35;;;;;;;;;;;;;;;23.83;62.76;97453.38;591472;240;68249;-71
2022/04/30 02:16:59;;;;;;;;;;;;;;;23.82;62.40;97451.78;591440;240;65900;-71
2022/04/30 02:19:28;;;;;;;;;;;;;;;23.82;62.49;97445.62;591476;240;63029;-71
2022/04/30 02:22:01;;;;;;;;;;;;;;;23.82;62.44;97450.98;591518;240;68577;-71
2022/04/30 02:24:27;;;;;;;;;;;;;;;23.81;62.56;97449.36;591401;240;68808;-71
2022/04/30 02:26:54;;;;;;;;;;;;;;;23.80;62.17;97443.20;591461;240;65145;-71
2022/04/30 02:29:22;;;;;;;;;;;;;;;23.79;62.74;97444.29;591426;240;68387;-71
2022/04/30 02:31:49;;;;;;;;;;;;;;;23.80;62.02;97453.94;591480;240;68442;-71
2022/04/30 02:34:18;;;;;;;;;;;;;;;23.80;62.58;97453.14;591517;240;65409;-71
2022/04/30 02:36:46;;;;;;;;;;;;;;;23.78;62.32;97442.67;591491;240;68383;-71
2022/04/30 02:39:14;;;;;;;;;;;;;;;23.78;61.94;97445.35;591453;240;68305;-71
2022/04/30 02:41:41;;;;;;;;;;;;;;;23.79;62.09;97446.97;591486;240;62971;-71
2022/04/30 02:44:09;;;;;;;;;;;;;;;23.79;62.40;97446.14;591467;240;65965;-71
2022/04/30 02:46:36;;;;;;;;;;;;;;;23.79;62.33;97443.46;591523;240;66328;-71
2022/04/30 02:49:04;;;;;;;;;;;;;;;23.78;62.65;97447.23;591445;240;65213;-71
2022/04/30 02:51:32;;;;;;;;;;;;;;;23.77;62.11;97449.13;591489;240;66481;-71
2022/04/30 02:53:59;;;;;;;;;;;;;;;23.77;62.42;97448.33;591447;240;66245;-71
2022/04/30 02:56:28;;;;;;;;;;;;;;;23.76;62.47;97444.82;591469;240;65384;-71
2022/04/30 03:01:41;;;;;;;;;;;;;;;23.77;62.16;97445.64;591518;240;67257;-71
2022/04/30 03:04:10;;;;;;;;;;;;;;;23.76;62.07;97446.70;591480;237;41795;-71
2022/04/30 03:06:37;;;;;;;;;;;;;;;23.75;62.51;97455.85;591466;240;68359;-71
2022/04/30 03:09:05;;;;;;;;;;;;;;;23.75;62.74;97455.85;591447;240;68336;-71
2022/04/30 03:11:33;;;;;;;;;;;;;;;23.75;62.28;97456.64;591460;240;63119;-71
2022/04/30 03:14:00;;;;;;;;;;;;;;;23.74;62.66;97448.89;591499;240;66302;-72
2022/04/30 03:21:52;;;;;;;;;;;;;;;23.73;62.27;97458.00;591037;240;68456;-72
2022/04/30 03:24:19;;;;;;;;;;;;;;;23.72;62.49;97457.20;591475;240;67161;-71
2022/04/30 03:26:48;;;;;;;;;;;;;;;23.72;62.21;97461.78;591475;240;63013;-71
2022/04/30 03:29:16;;;;;;;;;;;;;;;23.72;62.40;97467.14;591458;240;68501;-71
2022/04/30 03:31:44;;;;;;;;;;;;;;;23.72;62.46;97464.45;591481;240;65916;-71
2022/04/30 03:34:12;;;;;;;;;;;;;;;23.70;62.56;97460.12;591451;240;65156;-71
2022/04/30 03:36:40;;;;;;;;;;;;;;;23.70;62.69;97460.12;591487;240;68533;-71
2022/04/30 03:39:09;;;;;;;;;;;;;;;23.70;62.49;97464.69;591440;240;66490;-71
2022/04/30 03:41:36;;;;;;;;;;;;;;;23.69;62.47;97468.47;591480;240;65347;-71
2022/04/30 03:44:04;;;;;;;;;;;;;;;23.69;62.91;97473.83;591515;240;68245;-71
2022/04/30 03:46:31;;;;;;;;;;;;;;;23.69;62.40;97469.27;591432;240;69362;-71
2022/04/30 03:49:00;;;;;;;;;;;;;;;23.69;62.35;97471.95;591487;240;63098;-71
2022/04/30 03:51:28;;;;;;;;;;;;;;;23.68;62.42;97470.35;591483;240;69400;-71
2022/04/30 03:53:55;;;;;;;;;;;;;;;23.68;62.58;97466.84;591441;240;68313;-71
2022/04/30 03:56:24;;;;;;;;;;;;;;;23.67;62.52;97463.36;591535;240;65381;-71
2022/04/30 03:58:52;;;;;;;;;;;;;;;23.67;62.71;97468.73;591430;240;65951;-71
2022/04/30 04:01:21;;;;;;;;;;;;;;;23.69;63.00;97479.20;591470;240;68440;-71
2022/04/30 04:03:50;;;;;;;;;;;;;;;23.66;62.99;97469.82;591442;240;65918;-69
2022/04/30 04:06:18;;;;;;;;;;;;;;;23.66;62.32;97480.55;591458;240;66713;-69
2022/04/30 04:08:52;;;;;;;;;;;;;;;23.65;62.47;97478.96;591490;240;66199;-68
2022/04/30 04:11:16;;;;;;;;;;;;;;;23.66;62.66;97480.55;591415;237;62982;-69
2022/04/30 04:19:15;;;;;;;;;;;;;;;23.64;62.25;97471.97;591477;240;63091;-68
2022/04/30 04:21:42;;;;;;;;;;;;;;;23.64;62.74;97474.66;591471;240;68029;-68
2022/04/30 04:26:55;;;;;;;;;;;;;;;23.61;63.37;97479.78;591562;240;63094;-69
2022/04/30 04:29:23;;;;;;;;;;;;;;;23.62;62.95;97486.73;590351;240;65955;-68
2022/04/30 04:31:50;;;;;;;;;;;;;;;23.61;62.95;97483.27;588826;241;65729;-68
2022/04/30 04:34:18;;;;;;;;;;;;;;;23.60;63.09;97492.41;588782;241;65423;-69
2022/04/30 04:36:45;;;;;;;;;;;;;;;23.60;62.61;97486.20;588818;241;66070;-69
2022/04/30 04:39:14;;;;;;;;;;;;;;;23.59;62.70;97488.09;588863;241;68037;-69
2022/04/30 04:41:46;;;;;;;;;;;;;;;23.59;62.85;97490.78;588820;241;65478;-68
2022/04/30 04:44:11;;;;;;;;;;;;;;;23.59;62.73;97498.83;588754;241;68250;-68
2022/04/30 04:46:39;;;;;;;;;;;;;;;23.59;62.98;97490.78;588782;241;68100;-69
2022/04/30 04:49:08;;;;;;;;;;;;;;;23.59;63.70;97495.34;588777;241;65407;-68
2022/04/30 04:51:36;;;;;;;;;;;;;;;23.58;64.52;97497.23;588779;241;68335;-69
2022/04/30 04:54:03;;;;;;;;;;;;;;;23.58;65.37;97504.48;588799;241;66374;-69
2022/04/30 04:56:31;;;;;;;;;;;;;;;23.58;65.17;97505.28;588732;241;62969;-68
2022/04/30 04:59:02;;;;;;;;;;;;;;;23.56;63.55;97506.63;588756;241;66423;-69
2022/04/30 05:01:29;;;;;;;;;;;;;;;23.55;64.52;97488.94;588685;241;68257;-69
2022/04/30 05:03:57;;;;;;;;;;;;;;;23.54;64.84;97498.84;588797;241;63056;-71
2022/04/30 05:06:24;;;;;;;;;;;;;;;23.54;64.32;97498.84;588807;241;66175;-71
2022/04/30 05:08:52;;;;;;;;;;;;;;;23.54;64.41;97493.48;588787;241;66239;-71
2022/04/30 05:11:19;;;;;;;;;;;;;;;23.54;63.76;97504.21;588792;241;63010;-71
2022/04/30 05:13:49;;;;;;;;;;;;;;;23.54;63.90;97492.69;588823;239;53156;-71
2022/04/30 05:16:16;;;;;;;;;;;;;;;23.53;64.52;97497.25;588769;241;68300;-71
2022/04/30 05:18:44;;;;;;;;;;;;;;;23.53;63.94;97493.77;588800;241;63023;-71
2022/04/30 05:21:11;;;;;;;;;;;;;;;23.53;63.99;97491.89;588819;241;66538;-71
2022/04/30 05:23:39;;;;;;;;;;;;;;;23.53;64.54;97501.82;588815;241;68351;-71
2022/04/30 05:26:06;;;;;;;;;;;;;;;23.52;64.96;97492.98;588778;241;62961;-71
2022/04/30 05:28:34;;;;;;;;;;;;;;;23.52;64.20;97497.52;588925;240;66114;-71
2022/04/30 05:31:01;;;;;;;;;;;;;;;23.51;64.18;97502.08;591527;240;66137;-71
2022/04/30 05:33:30;;;;;;;;;;;;;;;23.51;64.58;97498.60;591485;240;62955;-71
2022/04/30 05:35:58;;;;;;;;;;;;;;;23.51;64.48;97498.60;591407;240;68764;-71
2022/04/30 05:38:25;;;;;;;;;;;;;;;23.51;64.06;97502.08;591314;240;68553;-71
2022/04/30 05:40:54;;;;;;;;;;;;;;;23.50;64.67;97500.48;591405;240;65171;-71
2022/04/30 05:43:22;;;;;;;;;;;;;;;23.50;64.16;97497.81;591468;240;67420;-71
2022/04/30 05:45:49;;;;;;;;;;;;;;;23.50;64.78;97503.17;591503;240;66436;-71
2022/04/30 05:48:17;;;;;;;;;;;;;;;23.50;65.23;97503.17;591450;240;63020;-71
2022/04/30 05:50:45;;;;;;;;;;;;;;;23.48;64.04;97499.95;591449;240;66515;-71
2022/04/30 05:53:12;;;;;;;;;;;;;;;23.48;64.42;97499.95;591219;240;66630;-71
2022/04/30 05:55:40;;;;;;;;;;;;;;;23.48;64.76;97502.64;591357;240;65323;-72
2022/04/30 05:58:07;;;;;;;;;;;;;;;23.47;65.92;97501.05;591489;240;68662;-74
2022/04/30 06:00:35;;;;;;;;;;;;;;;23.47;64.97;97503.73;591460;240;68407;-71
2022/04/30 06:03:02;;;;;;;;;;;;;;;23.48;65.60;97510.69;590765;240;65372;-72
2022/04/30 06:05:30;;;;;;;;;;;;;;;23.47;64.80;97511.77;591437;240;68673;-72
2022/04/30 06:07:57;;;;;;;;;;;;;;;23.47;64.47;97509.89;591228;240;68880;-72
2022/04/30 06:10:25;;;;;;;;;;;;;;;23.46;63.76;97515.52;591318;240;65130;-71
2022/04/30 06:12:52;;;;;;;;;;;;;;;23.48;64.26;97516.05;591190;240;68518;-74
2022/04/30 06:15:20;;;;;;;;;;;;;;;23.49;65.16;97512.31;591354;240;66421;-71
2022/04/30 06:17:47;;;;;;;;;;;;;;;23.49;64.79;97512.31;591321;240;65115;-70
2022/04/30 06:20:15;;;;;;;;;;;;;;;23.50;65.28;97508.53;591429;240;68844;-72
2022/04/30 06:22:42;;;;;;;;;;;;;;;23.49;64.16;97523.84;591432;240;68564;-72
2022/04/30 06:25:11;;;;;;;;;;;;;;;23.49;64.78;97515.79;591387;240;65041;-72
2022/04/30 06:27:39;;;;;;;;;;;;;;;23.50;65.47;97516.58;591383;240;68572;-72
2022/04/30 06:30:08;;;;;;;;;;;;;;;23.51;65.25;97520.06;591335;240;68557;-73
2022/04/30 06:32:36;;;;;;;;;;;;;;;23.51;65.31;97517.38;591316;240;63110;-72
2022/04/30 06:35:03;;;;;;;;;;;;;;;23.52;65.46;97522.48;586305;240;66656;-73
2022/04/30 06:37:31;;;;;;;;;;;;;;;23.54;65.57;97522.20;584777;242;66532;-72
2022/04/30 06:39:58;;;;;;;;;;;;;;;23.53;66.63;97521.39;585001;242;63158;-73
2022/04/30 06:42:26;;;;;;;;;;;;;;;23.55;66.12;97521.13;585036;242;68739;-71
2022/04/30 06:44:54;;;;;;;;;;;;;;;23.54;66.17;97520.31;584960;242;66630;-72
2022/04/30 06:47:22;;;;;;;;;;;;;;;23.54;66.61;97509.58;585014;242;65184;-72
2022/04/30 06:49:50;;;;;;;;;;;;;;;23.55;65.43;97515.77;585054;242;66248;-72
2022/04/30 06:52:18;;;;;;;;;;;;;;;23.55;65.16;97516.56;584890;242;66499;-71
2022/04/30 06:57:33;;;;;;;;;;;;;;;23.55;65.75;97510.41;585026;242;69876;-73
2022/04/30 07:00:39;;;;;;;;;;;;;;;23.54;65.78;97514.94;586280;240;68639;-72
2022/04/30 07:02:31;;;;;;;;;;;;;;;23.55;65.70;97516.56;585493;240;62854;-72
2022/04/30 07:04:59;;;;;;;;;;;;;;;23.54;64.77;97514.94;585052;242;66421;-74
2022/04/30 07:07:27;;;;;;;;;;;;;;;23.54;64.68;97509.58;584918;242;68559;-68
2022/04/30 07:09:54;;;;;;;;;;;;;;;23.56;65.39;97517.36;585036;242;65250;-72
2022/04/30 07:12:22;;;;;;;;;;;;;;;23.56;65.35;97514.68;584822;242;68699;-72
2022/04/30 07:14:50;;;;;;;;;;;;;;;23.56;65.02;97509.31;584721;242;68263;-72
2022/04/30 07:17:17;;;;;;;;;;;;;;;23.55;65.90;97508.52;585044;242;62996;-72
2022/04/30 07:19:45;;;;;;;;;;;;;;;23.57;66.37;97506.38;585023;242;66506;-72
2022/04/30 07:22:15;;;;;;;;;;;;;;;23.56;65.68;97507.42;584950;242;68868;-74
2022/04/30 07:24:44;;;;;;;;;;;;;;;23.55;65.19;97508.52;585035;242;65348;-72
2022/04/30 07:27:11;;;;;;;;;;;;;;;23.55;64.82;97505.84;584919;242;68823;-75
2022/04/30 07:29:39;;;;;;;;;;;;;;;23.56;65.49;97504.75;584956;242;68510;-72
2022/04/30 07:32:08;;;;;;;;;;;;;;;23.55;63.58;97505.04;584958;242;64120;-72
2022/04/30 07:34:36;;;;;;;;;;;;;;;23.56;65.01;97501.27;584746;239;68808;-72
2022/04/30 07:37:04;;;;;;;;;;;;;;;23.56;65.31;97502.06;584596;242;66703;-72
2022/04/30 07:39:32;;;;;;;;;;;;;;;23.56;65.06;97501.27;584701;242;65138;-72
2022/04/30 07:41:59;;;;;;;;;;;;;;;23.56;64.20;97502.06;584934;242;68450;-72
2022/04/30 07:44:29;;;;;;;;;;;;;;;23.57;65.08;97501.00;585001;242;68557;-71
2022/04/30 07:46:56;;;;;;;;;;;;;;;23.58;65.25;97512.53;584976;240;65229;-69
2022/04/30 07:49:25;;;;;;;;;;;;;;;23.56;65.66;97507.42;584937;242;69075;-70
2022/04/30 07:51:58;;;;;;;;;;;;;;;23.57;65.28;97509.05;585012;239;68128;-71
2022/04/30 07:54:26;;;;;;;;;;;;;;;23.58;65.84;97504.48;584840;242;65465;-71
2022/04/30 07:56:54;;;;;;;;;;;;;;;23.58;64.91;97509.84;584938;242;68735;-70
2022/04/30 07:59:22;;;;;;;;;;;;;;;23.58;63.86;97502.59;585063;242;68517;-71
2022/04/30 08:01:50;;;;;;;;;;;;;;;23.56;61.16;97512.80;585029;242;65322;-69
2022/04/30 08:04:18;;;;;;;;;;;;;;;23.59;61.96;97504.19;584985;242;66648;-69
2022/04/30 08:06:45;;;;;;;;;;;;;;;23.59;62.73;97508.77;585079;242;66366;-70
2022/04/30 08:09:13;;;;;;;;;;;;;;;23.59;62.43;97506.08;584996;242;63953;-69
2022/04/30 08:11:41;;;;;;;;;;;;;;;23.60;62.69;97503.13;584966;242;68701;-69
2022/04/30 08:14:08;;;;;;;;;;;;;;;23.60;62.75;97502.30;585063;242;66518;-69
2022/04/30 08:16:36;;;;;;;;;;;;;;;23.59;62.07;97512.24;585044;242;63045;-70
2022/04/30 08:19:03;;;;;;;;;;;;;;;23.60;61.97;97508.50;585002;242;66409;-69
2022/04/30 08:21:31;;;;;;;;;;;;;;;23.63;62.50;97513.31;585019;242;66450;-70
2022/04/30 08:23:59;;;;;;;;;;;;;;;23.63;62.47;97515.20;585004;242;62885;-70
2022/04/30 08:26:26;;;;;;;;;;;;;;;23.61;62.17;97504.73;584982;242;66440;-70
2022/04/30 08:28:54;;;;;;;;;;;;;;;23.63;62.41;97507.14;585003;242;65914;-73
2022/04/30 08:31:21;;;;;;;;;;;;;;;23.63;62.14;97507.94;584985;242;65226;-70
2022/04/30 08:33:49;;;;;;;;;;;;;;;23.63;62.27;97491.84;585004;242;68473;-69
2022/04/30 08:36:18;;;;;;;;;;;;;;;23.64;62.76;97498.00;584990;242;68568;-71
2022/04/30 08:38:45;;;;;;;;;;;;;;;23.65;62.79;97494.23;584964;242;63018;-70
2022/04/30 08:41:16;;;;;;;;;;;;;;;23.65;62.65;97488.86;584988;242;66262;-71
2022/04/30 08:43:45;;;;;;;;;;;;;;;23.66;62.32;97499.34;585011;242;66571;-70
2022/04/30 08:46:12;;;;;;;;;;;;;;;23.66;62.99;97493.97;584979;242;62982;-71
2022/04/30 08:48:41;;;;;;;;;;;;;;;23.66;62.16;97487.80;584990;242;66169;-70
2022/04/30 08:51:10;;;;;;;;;;;;;;;23.67;62.30;97484.83;584906;242;66743;-71
2022/04/30 08:53:38;;;;;;;;;;;;;;;23.67;62.46;97484.83;584996;242;63031;-75
2022/04/30 08:56:09;;;;;;;;;;;;;;;23.67;62.68;97476.78;585035;242;66180;-71
2022/04/30 08:58:36;;;;;;;;;;;;;;;23.68;62.54;97485.63;585102;242;66428;-71
2022/04/30 09:01:07;;;;;;;;;;;;;;;23.69;62.09;97480.00;584971;242;63097;-70
2022/04/30 09:03:35;;;;;;;;;;;;;;;23.69;62.70;97485.36;585027;242;66504;-70
2022/04/30 09:06:04;;;;;;;;;;;;;;;23.70;62.63;97486.16;585071;242;68584;-70
2022/04/30 09:08:31;;;;;;;;;;;;;;;23.69;62.67;97482.68;584971;242;63047;-69
2022/04/30 09:11:06;;;;;;;;;;;;;;;23.71;62.38;97482.45;585052;242;66531;-67
2022/04/30 09:13:35;;;;;;;;;;;;;;;23.72;62.80;97473.30;584991;242;66685;-67
2022/04/30 09:16:02;;;;;;;;;;;;;;;23.72;62.44;97467.94;584831;242;65464;-67
2022/04/30 09:18:31;;;;;;;;;;;;;;;23.73;62.32;97469.53;585072;242;68857;-67
2022/04/30 09:20:58;;;;;;;;;;;;;;;23.73;62.52;97463.37;584840;242;66746;-67
2022/04/30 09:23:27;;;;;;;;;;;;;;;23.74;62.08;97464.98;585003;242;65335;-67
2022/04/30 09:25:57;;;;;;;;;;;;;;;23.73;62.01;97466.84;585059;242;68835;-67
2022/04/30 09:28:29;;;;;;;;;;;;;;;23.75;62.45;97461.22;585004;242;66681;-68
2022/04/30 09:31:05;;;;;;;;;;;;;;;23.75;62.65;97467.38;584826;242;65524;-67
2022/04/30 09:33:33;;;;;;;;;;;;;;;23.75;62.27;97467.38;585083;242;66492;-67
2022/04/30 09:38:51;;;;;;;;;;;;;;;23.76;62.71;97468.97;585034;242;65466;-67
2022/04/30 09:41:26;;;;;;;;;;;;;;;23.76;62.00;97474.34;585011;242;66483;-67
2022/04/30 09:44:00;;;;;;;;;;;;;;;23.77;62.47;97477.85;585065;242;66428;-67
2022/04/30 09:46:29;;;;;;;;;;;;;;;23.78;62.82;97472.19;585058;242;63036;-67
2022/04/30 09:54:28;;;;;;;;;;;;;;;23.77;62.36;97475.97;585045;242;65330;-68
2022/04/30 09:56:57;;;;;;;;;;;;;;;23.78;62.52;97472.19;585033;242;68806;-67
2022/04/30 09:59:26;;;;;;;;;;;;;;;23.77;62.62;97467.91;585042;242;68606;-68
2022/04/30 10:01:54;;;;;;;;;;;;;;;23.79;62.61;97467.62;585095;242;65473;-68
2022/04/30 10:04:22;;;;;;;;;;;;;;;23.80;62.80;97463.87;585012;242;68802;-68
2022/04/30 10:06:53;;;;;;;;;;;;;;;23.80;63.01;97466.55;585044;242;68634;-68
2022/04/30 10:09:22;;;;;;;;;;;;;;;23.80;62.52;97463.87;584995;242;63293;-67
2022/04/30 10:12:09;;;;;;;;;;;;;;;23.79;62.51;97462.25;584918;242;68466;-68
2022/04/30 10:14:42;;;;;;;;;;;;;;;23.82;62.48;97456.35;585090;242;68353;-66
2022/04/30 10:17:16;;;;;;;;;;;;;;;23.81;62.97;97452.05;585022;241;65458;-70
2022/04/30 10:19:49;;;;;;;;;;;;;;;23.81;62.99;97444.79;585054;241;68875;-70
2022/04/30 10:22:15;;;;;;;;;;;;;;;23.80;61.41;97434.34;584253;242;68524;-69
2022/04/30 10:24:44;;;;;;;;;;;;;;;23.82;61.87;97434.88;585088;242;65473;-69
2022/04/30 10:27:11;;;;;;;;;;;;;;;23.82;62.19;97432.99;585099;242;68709;-69
2022/04/30 10:29:40;;;;;;;;;;;;;;;23.84;62.73;97438.06;585063;242;68590;-69
2022/04/30 10:32:08;;;;;;;;;;;;;;;23.83;63.47;97428.42;584748;242;65147;-68
2022/04/30 10:34:35;;;;;;;;;;;;;;;23.84;63.16;97430.02;585093;242;66492;-69
2022/04/30 10:37:03;;;;;;;;;;;;;;;23.84;63.26;97427.33;585093;240;66563;-69
2022/04/30 10:39:30;;;;;;;;;;;;;;;23.85;63.49;97434.32;585072;242;63043;-69
2022/04/30 10:41:58;;;;;;;;;;;;;;;23.84;62.79;97422.76;585115;242;66469;-69
2022/04/30 10:44:29;;;;;;;;;;;;;;;23.85;63.01;97437.00;585078;242;68549;-69
2022/04/30 10:46:58;;;;;;;;;;;;;;;23.86;63.67;97431.34;585079;242;65399;-69
2022/04/30 10:49:26;;;;;;;;;;;;;;;23.86;63.67;97430.55;584807;242;66447;-70
2022/04/30 10:51:56;;;;;;;;;;;;;;;23.87;63.66;97429.45;585067;242;66422;-69
2022/04/30 10:54:25;;;;;;;;;;;;;;;23.86;63.45;97425.17;585098;242;65175;-69
2022/04/30 10:57:00;;;;;;;;;;;;;;;23.87;63.25;97416.03;585115;242;68684;-69
2022/04/30 10:59:27;;;;;;;;;;;;;;;23.87;63.72;97418.72;584891;242;66063;-68
2022/04/30 11:01:55;;;;;;;;;;;;;;;23.88;63.65;97423.02;585075;242;62662;-68
2022/04/30 11:04:24;;;;;;;;;;;;;;;23.86;64.34;97417.13;585090;242;66423;-69
2022/04/30 11:06:53;;;;;;;;;;;;;;;23.87;64.02;97424.91;585060;242;68980;-69
2022/04/30 11:09:21;;;;;;;;;;;;;;;23.88;64.05;97418.45;585102;242;63283;-69
2022/04/30 11:11:49;;;;;;;;;;;;;;;23.87;64.13;97416.86;585084;242;66685;-69
2022/04/30 11:14:19;;;;;;;;;;;;;;;23.88;63.84;97413.08;585076;242;68537;-69
2022/04/30 11:16:49;;;;;;;;;;;;;;;23.89;64.09;97419.24;585072;240;63276;-69
2022/04/30 11:19:18;;;;;;;;;;;;;;;23.90;64.17;97412.81;585091;242;66726;-68
2022/04/30 11:21:50;;;;;;;;;;;;;;;23.90;63.97;97410.13;585093;242;66492;-69
2022/04/30 11:24:25;;;;;;;;;;;;;;;23.89;64.53;97413.88;585125;242;63084;-69
2022/04/30 11:26:58;;;;;;;;;;;;;;;23.89;64.74;97403.14;585065;242;68182;-69
2022/04/30 11:29:26;;;;;;;;;;;;;;;23.90;64.27;97410.13;585030;242;68581;-69
2022/04/30 11:31:54;;;;;;;;;;;;;;;23.90;64.63;97412.81;585059;242;65046;-69
2022/04/30 11:34:22;;;;;;;;;;;;;;;23.90;64.32;97415.50;585121;242;66756;-69
2022/04/30 11:36:51;;;;;;;;;;;;;;;23.90;63.96;97404.77;585144;240;66485;-69
2022/04/30 11:39:19;;;;;;;;;;;;;;;23.90;64.09;97399.39;585062;242;65183;-69
2022/04/30 11:41:46;;;;;;;;;;;;;;;;;;585126;242;66500;-69
2022/04/30 11:44:19;;;;;;;;;;;;;;;23.91;64.08;97406.35;585152;242;68540;-69
2022/04/30 11:46:44;;;;;;;;;;;;;;;23.90;64.23;97410.13;585029;242;65640;-69
2022/04/30 11:49:11;;;;;;;;;;;;;;;;;;585127;242;68656;-69
2022/04/30 11:51:39;;;;;;;;;;;;;;;23.90;64.40;97410.13;585163;242;66484;-69
2022/04/30 11:54:10;;;;;;;;;;;;;;;23.91;64.34;97401.78;585118;242;63026;-69
2022/04/30 11:56:37;;;;;;;;;;;;;;;;;;585072;242;68669;-69
2022/04/30 11:59:04;;;;;;;;;;;;;;;23.91;64.34;97401.78;585135;242;68415;-69
2022/04/30 12:01:35;;;;;;;;;;;;;;;23.91;64.60;97406.35;585118;242;63042;-69
2022/04/30 12:04:05;;;;;;;;;;;;;;;23.91;64.51;97398.30;585108;242;66507;-69
2022/04/30 12:06:33;;;;;;;;;;;;;;;23.91;64.61;97395.61;585078;242;68671;-69
2022/04/30 12:09:01;;;;;;;;;;;;;;;23.91;64.46;97395.61;585100;242;63000;-69
2022/04/30 12:11:29;;;;;;;;;;;;;;;23.91;64.13;97391.05;585079;242;68772;-69
2022/04/30 12:14:00;;;;;;;;;;;;;;;23.91;64.59;97385.67;585136;242;68342;-69
2022/04/30 12:16:38;;;;;;;;;;;;;;;23.91;64.03;97384.88;585134;242;63030;-69
2022/04/30 12:24:43;;;;;;;;;;;;;;;23.91;64.23;97385.67;585113;242;65553;-71
2022/04/30 12:27:12;;;;;;;;;;;;;;;23.91;64.19;97376.83;585118;242;68705;-71
2022/04/30 12:29:40;;;;;;;;;;;;;;;23.91;64.33;97368.77;583378;242;68528;-71
2022/04/30 12:32:07;;;;;;;;;;;;;;;23.88;62.89;97366.66;582376;243;65431;-71
2022/04/30 12:34:39;;;;;;;;;;;;;;;23.88;64.07;97362.08;582441;243;68669;-71
2022/04/30 12:37:07;;;;;;;;;;;;;;;23.88;63.41;97361.29;581448;243;68545;-71
2022/04/30 12:39:34;;;;;;;;;;;;;;;23.87;63.68;97363.17;582302;243;65228;-71
2022/04/30 12:42:02;;;;;;;;;;;;;;;23.88;63.39;97358.60;582480;243;68343;-71
2022/04/30 12:44:30;;;;;;;;;;;;;;;23.86;63.38;97363.44;582411;243;69124;-71
2022/04/30 12:46:57;;;;;;;;;;;;;;;23.86;62.84;97358.08;582425;243;64975;-71
2022/04/30 12:49:26;;;;;;;;;;;;;;;23.86;62.83;97352.70;582338;243;66482;-71
2022/04/30 12:51:54;;;;;;;;;;;;;;;23.86;62.74;97350.02;582398;243;68329;-71
2022/04/30 12:54:21;;;;;;;;;;;;;;;23.86;62.84;97341.97;582436;243;63073;-69
2022/04/30 12:56:49;;;;;;;;;;;;;;;23.86;61.84;97344.66;582481;243;68265;-69
2022/04/30 12:59:16;;;;;;;;;;;;;;;23.86;61.90;97350.81;582498;243;68579;-69
2022/04/30 13:01:44;;;;;;;;;;;;;;;23.87;61.90;97349.75;582469;243;65408;-69
2022/04/30 13:04:12;;;;;;;;;;;;;;;23.88;62.99;97347.87;582481;243;66428;-69
2022/04/30 13:06:40;;;;;;;;;;;;;;;23.87;62.73;97346.25;582392;243;68577;-69
2022/04/30 13:14:38;;;;;;;;;;;;;;;23.87;63.13;97340.87;582456;243;68599;-69
2022/04/30 13:17:06;;;;;;;;;;;;;;;23.87;63.19;97336.34;582494;243;65313;-69
2022/04/30 13:19:33;;;;;;;;;;;;;;;23.86;63.25;97340.08;582347;243;66493;-69
2022/04/30 13:22:01;;;;;;;;;;;;;;;23.86;62.69;97332.03;582437;243;66775;-69
2022/04/30 13:24:29;;;;;;;;;;;;;;;23.87;63.71;97340.87;582466;243;65444;-69
2022/04/30 13:26:57;;;;;;;;;;;;;;;23.88;63.62;97342.50;582461;243;66708;-69
2022/04/30 13:29:25;;;;;;;;;;;;;;;23.87;63.32;97335.51;583470;242;68466;-68
2022/04/30 13:31:52;;;;;;;;;;;;;;;23.87;63.82;97330.14;584982;242;65387;-69
2022/04/30 13:34:21;;;;;;;;;;;;;;;23.87;63.42;97347.07;585084;242;69704;-69
2022/04/30 13:36:49;;;;;;;;;;;;;;;23.87;63.48;97324.77;584517;242;68977;-69
2022/04/30 13:39:16;;;;;;;;;;;;;;;23.87;63.34;97330.97;585039;242;63127;-69